Time;durP1;ratioP1;P1;durP2;ratioP2;P2;SDS_P1;SDS_P2;PMS_P1;PMS_P2;Temp;Humidity;BMP_temperature;BMP_pressure;BME280_temperature;BME280_humidity;BME280_pressure;Samples;Min_cycle;Max_cycle;Signal;HPM_P1;HPM_P2
2022/11/02 00:01:40;;;;;;;6.63;1.37;;;;;;;11.89;66.43;101193.44;4994579;28;20225;-81
2022/11/02 00:04:06;;;;;;;5.87;1.30;;;;;;;11.96;66.84;101175.03;4994953;28;20212;-81
2022/11/02 00:06:33;;;;;;;6.90;1.30;;;;;;;12.02;66.70;101164.50;4995259;28;20225;-80
2022/11/02 00:08:59;;;;;;;5.30;1.53;;;;;;;12.03;66.93;101160.97;4995191;28;20309;-81
2022/11/02 00:11:27;;;;;;;4.47;1.60;;;;;;;11.98;67.06;101147.97;4995203;28;20206;-78
2022/11/02 00:13:53;;;;;;;4.53;1.33;;;;;;;11.97;67.38;101140.13;4995415;28;20205;-81
2022/11/02 00:16:22;;;;;;;2.87;1.30;;;;;;;11.94;66.85;101145.41;4996419;28;20235;-81
2022/11/02 00:18:51;;;;;;;2.67;1.03;;;;;;;11.89;67.45;101146.34;4995680;28;20231;-81
2022/11/02 00:21:20;;;;;;;6.37;2.30;;;;;;;11.91;67.00;101144.56;4994416;28;20234;-80
2022/11/02 00:23:48;;;;;;;5.50;1.40;;;;;;;11.94;66.95;101138.41;4995072;28;20296;-81
2022/11/02 00:26:15;;;;;;;5.30;1.23;;;;;;;11.72;67.06;101151.75;4996474;28;20636;-81
2022/11/02 00:28:43;;;;;;;5.40;1.40;;;;;;;11.82;67.64;101131.56;4995300;28;20268;-81
2022/11/02 00:31:09;;;;;;;6.70;1.20;;;;;;;11.81;67.83;101110.66;4993578;28;20201;-81
2022/11/02 00:33:36;;;;;;;4.87;1.63;;;;;;;11.74;68.14;101120.34;4993858;28;20219;-80
2022/11/02 00:36:02;;;;;;;4.70;1.13;;;;;;;11.77;67.89;101098.50;4993656;28;20751;-81
2022/11/02 00:38:30;;;;;;;6.47;1.57;;;;;;;11.85;68.01;101102.75;4994406;28;20239;-81
2022/11/02 00:40:57;;;;;;;4.00;1.30;;;;;;;11.87;67.52;101107.94;4994309;28;20323;-79
2022/11/02 00:43:23;;;;;;;10.07;2.00;;;;;;;11.89;67.45;101093.13;4995448;28;20680;-81
2022/11/02 00:45:51;;;;;;;3.93;1.60;;;;;;;11.90;68.05;101097.50;4995594;28;20208;-80
2022/11/02 00:48:18;;;;;;;3.43;1.50;;;;;;;11.91;67.64;101092.25;4995022;28;20227;-80
2022/11/02 00:50:44;;;;;;;4.73;1.50;;;;;;;11.95;67.19;101095.66;4994545;28;20208;-80
2022/11/02 00:53:10;;;;;;;6.37;1.40;;;;;;;11.94;67.33;101093.09;4995143;28;20228;-80
2022/11/02 00:55:37;;;;;;;4.80;1.20;;;;;;;11.94;67.27;101098.31;4994990;28;20210;-81
2022/11/02 00:58:03;;;;;;;4.07;1.10;;;;;;;11.96;67.07;101102.63;4995456;28;20218;-80
2022/11/02 01:00:30;;;;;;;5.80;2.40;;;;;;;11.96;67.15;101107.00;4994781;28;20257;-79
2022/11/02 01:03:00;;;;;;;4.87;1.20;;;;;;;11.95;67.37;101106.13;4993721;28;20235;-81
2022/11/02 01:05:27;;;;;;;5.33;2.03;;;;;;;11.96;67.60;101096.56;4994324;28;20345;-81
2022/11/02 01:07:53;;;;;;;7.30;1.63;;;;;;;11.99;67.54;101092.13;4993669;28;20212;-81
2022/11/02 01:10:20;;;;;;;4.07;1.23;;;;;;;12.01;67.53;101082.53;4993485;28;20221;-81
2022/11/02 01:12:46;;;;;;;3.27;1.10;;;;;;;11.97;67.61;101082.56;4994487;28;20211;-80
2022/11/02 01:15:13;;;;;;;8.03;1.20;;;;;;;11.92;67.04;101096.56;4993443;28;20214;-80
2022/11/02 01:17:40;;;;;;;13.10;2.47;;;;;;;11.94;67.92;101088.72;4995299;28;20204;-81
2022/11/02 01:20:09;;;;;;;3.70;1.30;;;;;;;12.01;67.64;101092.97;4994367;28;20229;-81
2022/11/02 01:22:35;;;;;;;6.73;1.43;;;;;;;12.03;67.65;101095.56;4994436;28;20264;-80
2022/11/02 01:25:02;;;;;;;5.87;1.37;;;;;;;12.05;67.71;101088.53;4993787;28;20269;-79
2022/11/02 01:27:28;;;;;;;3.03;1.30;;;;;;;12.06;67.46;101099.00;4993910;28;20218;-79
2022/11/02 01:29:55;;;;;;;4.50;1.43;;;;;;;11.96;67.34;101101.78;4994292;28;20284;-80
2022/11/02 01:32:21;;;;;;;5.87;1.37;;;;;;;12.01;67.89;101100.84;4993909;28;20249;-80
2022/11/02 01:34:47;;;;;;;3.87;1.30;;;;;;;12.03;67.89;101080.75;4994738;28;20205;-80
2022/11/02 01:37:15;;;;;;;4.80;2.03;;;;;;;11.96;67.98;101088.69;4994289;28;20244;-80
2022/11/02 01:39:42;;;;;;;4.30;1.40;;;;;;;12.04;67.90;101065.91;4994221;28;20237;-80
2022/11/02 01:42:17;;;;;;;7.83;1.60;;;;;;;12.05;67.26;101078.97;4993207;28;20234;-80
2022/11/02 01:44:44;;;;;;;4.87;1.30;;;;;;;12.11;67.80;101083.25;4993840;28;20214;-81
2022/11/02 01:47:17;;;;;;;5.97;1.53;;;;;;;12.05;68.07;101076.34;4994118;28;20601;-82
2022/11/02 01:49:47;;;;;;;7.17;1.83;;;;;;;12.02;68.34;101052.84;4994346;28;20224;-80
2022/11/02 01:52:19;;;;;;;8.07;1.70;;;;;;;11.97;68.14;101053.78;4998157;28;20209;-80
2022/11/02 01:54:51;;;;;;;6.90;1.40;;;;;;;11.97;68.25;101041.59;4997638;28;20190;-80
2022/11/02 01:57:20;;;;;;;6.33;1.50;;;;;;;12.04;68.50;101032.75;4996596;28;20208;-81
2022/11/02 01:59:51;;;;;;;3.43;1.60;;;;;;;11.97;68.27;101038.09;4996909;28;20637;-79
2022/11/02 02:02:20;;;;;;;7.10;1.30;;;;;;;12.02;67.90;101034.50;4998382;28;20241;-81
2022/11/02 02:05:02;;;;;;;6.17;1.13;;;;;;;12.03;68.24;101028.41;4997760;28;20205;-80
2022/11/02 02:07:31;;;;;;;5.33;1.30;;;;;;;11.88;68.33;101024.22;4996867;28;20216;-80
2022/11/02 02:09:57;;;;;;;7.63;1.43;;;;;;;11.96;68.73;101016.28;4996806;28;20228;-80
2022/11/02 02:12:25;;;;;;;5.63;1.33;;;;;;;11.89;68.24;101012.91;4996759;28;20206;-80
2022/11/02 02:14:53;;;;;;;4.23;1.10;;;;;;;11.98;68.91;101011.03;4996730;28;20216;-80
2022/11/02 02:17:37;;;;;;;8.27;1.40;;;;;;;11.99;68.33;101015.38;4995939;28;20210;-80
2022/11/02 02:20:11;;;;;;;5.13;2.10;;;;;;;11.92;68.28;101035.53;4997188;28;20240;-81
2022/11/02 02:23:10;;;;;;;3.37;1.20;;;;;;;12.00;68.09;101024.97;4997210;28;20610;-80
2022/11/02 02:25:56;;;;;;;3.97;1.63;;;;;;;12.01;68.00;101035.41;4995191;28;20271;-78
2022/11/02 02:28:36;;;;;;;3.60;1.50;;;;;;;12.10;68.21;101034.41;4996006;28;20653;-78
2022/11/02 02:31:10;;;;;;;5.23;1.90;;;;;;;12.12;68.00;101025.63;4995607;28;20239;-78
2022/11/02 02:33:43;;;;;;;4.27;1.37;;;;;;;12.19;68.11;101026.41;4995533;28;20208;-80
2022/11/02 02:36:15;;;;;;;5.33;1.63;;;;;;;12.05;68.19;101034.47;4995500;28;20200;-79
2022/11/02 02:38:46;;;;;;;3.67;1.23;;;;;;;12.12;68.50;101028.25;4995526;28;20240;-80
2022/11/02 02:41:19;;;;;;;3.70;1.00;;;;;;;12.12;69.01;101016.91;4996107;28;20239;-80
2022/11/02 02:43:50;;;;;;;6.73;1.87;;;;;;;12.17;68.95;100998.50;4996622;28;20216;-80
2022/11/02 02:46:21;;;;;;;6.73;1.60;;;;;;;12.19;69.04;100994.13;4996041;28;20214;-80
2022/11/02 02:48:50;;;;;;;4.03;1.37;;;;;;;12.19;68.94;100975.78;4995407;28;20642;-79
2022/11/02 02:51:22;;;;;;;4.97;1.30;;;;;;;12.19;69.39;100954.84;4996182;28;20247;-80
2022/11/02 02:53:52;;;;;;;8.10;1.47;;;;;;;12.22;68.98;100950.44;4997818;28;20218;-80
2022/11/02 02:56:22;;;;;;;4.80;1.63;;;;;;;12.30;68.52;100971.25;5002807;28;20568;-79
2022/11/02 02:58:57;;;;;;;5.87;1.40;;;;;;;12.19;68.96;100981.91;4995551;28;20228;-79
2022/11/02 03:01:25;;;;;;;7.63;2.97;;;;;;;12.20;69.07;100978.41;4995566;28;20235;-80
2022/11/02 03:03:51;;;;;;;4.00;1.20;;;;;;;12.20;68.98;100967.06;4996510;28;20233;-81
2022/11/02 03:06:21;;;;;;;5.43;1.40;;;;;;;12.19;69.18;100960.97;4995735;28;20213;-80
2022/11/02 03:08:55;;;;;;;6.13;1.90;;;;;;;12.12;69.15;100968.06;4997125;28;20274;-79
2022/11/02 03:11:23;;;;;;;6.53;1.70;;;;;;;12.10;69.23;100967.22;4995630;28;20194;-80
2022/11/02 03:14:18;;;;;;;4.27;1.40;;;;;;;12.18;69.37;100946.16;4995420;28;20254;-80
2022/11/02 03:17:00;;;;;;;4.03;0.90;;;;;;;12.22;69.00;100962.69;4993962;28;20217;-80
2022/11/02 03:19:36;;;;;;;4.43;1.53;;;;;;;12.22;69.35;100950.44;4995682;28;20248;-81
2022/11/02 03:22:07;;;;;;;4.17;1.17;;;;;;;12.09;69.18;100968.13;4995065;28;20227;-78
2022/11/02 03:24:41;;;;;;;5.20;1.47;;;;;;;12.20;69.07;100952.22;4995249;28;20212;-79
2022/11/02 03:27:18;;;;;;;5.63;1.10;;;;;;;12.19;69.59;100947.91;4996078;28;20218;-80
2022/11/02 03:29:52;;;;;;;5.70;1.67;;;;;;;12.14;69.33;100941.88;4994720;28;20784;-79
2022/11/02 03:32:24;;;;;;;6.03;1.43;;;;;;;12.18;69.24;100940.91;4995568;28;20229;-80
2022/11/02 03:34:55;;;;;;;7.67;2.57;;;;;;;12.22;68.98;100939.13;4996208;28;20197;-80
2022/11/02 03:37:28;;;;;;;6.63;1.53;;;;;;;12.25;69.02;100947.78;4994744;28;20220;-80
2022/11/02 03:40:01;;;;;;;5.80;1.50;;;;;;;12.28;69.35;100949.47;4995432;28;20626;-80
2022/11/02 03:42:32;;;;;;;9.07;2.33;;;;;;;12.12;69.21;100933.19;4996112;28;20232;-80
2022/11/02 03:45:06;;;;;;;5.00;1.70;;;;;;;12.19;69.70;100934.81;4995124;28;20214;-81
2022/11/02 03:47:36;;;;;;;5.73;1.37;;;;;;;12.19;69.69;100932.19;4995157;28;20225;-80
2022/11/02 03:50:05;;;;;;;3.57;1.30;;;;;;;12.18;70.02;100926.97;4995488;28;20643;-80
2022/11/02 03:52:35;;;;;;;5.80;2.00;;;;;;;12.22;69.51;100924.28;4995719;28;20204;-80
2022/11/02 03:55:07;;;;;;;6.90;1.57;;;;;;;12.14;69.89;100939.25;4994186;28;20208;-80
2022/11/02 03:57:39;;;;;;;4.90;1.60;;;;;;;12.20;70.07;100927.81;4994791;28;20205;-80
2022/11/02 04:00:10;;;;;;;5.00;1.07;;;;;;;12.11;70.01;100916.63;4994261;28;20239;-80
2022/11/02 04:02:38;;;;;;;5.73;1.17;;;;;;;12.12;70.38;100927.94;4994530;28;20731;-80
2022/11/02 04:05:05;;;;;;;8.53;1.53;;;;;;;12.12;70.24;100907.88;4994637;28;20694;-81
2022/11/02 04:10:15;;;;;;;6.83;1.60;;;;;;;12.10;70.53;100906.16;4993286;28;20206;-81
2022/11/02 04:15:27;;;;;;;5.77;1.67;;;;;;;12.02;70.47;100895.84;4995626;28;20286;-79
2022/11/02 04:20:37;;;;;;;4.70;1.10;;;;;;;12.05;70.80;100895.81;4995025;28;20208;-79
2022/11/02 04:25:52;;;;;;;4.97;1.47;;;;;;;12.04;70.96;100867.03;4994003;28;20280;-80
2022/11/02 04:28:19;;;;;;;5.40;1.13;;;;;;;12.03;71.51;100876.66;4993635;28;20237;-80
2022/11/02 04:30:47;;;;;;;4.93;1.33;;;;;;;12.08;71.72;100874.78;4994385;28;20211;-79
2022/11/02 04:35:59;;;;;;;4.27;1.13;;;;;;;12.09;71.14;100886.13;4994198;28;20211;-80
2022/11/02 04:38:39;;;;;;;4.00;1.00;;;;;;;12.18;71.19;100885.97;4994749;28;20240;-80
2022/11/02 04:43:50;;;;;;;4.00;1.30;;;;;;;12.18;70.89;100895.56;4994809;28;20308;-80
2022/11/02 04:46:18;;;;;;;6.23;1.17;;;;;;;12.09;70.89;100894.84;4994516;28;20208;-80
2022/11/02 04:48:44;;;;;;;5.63;1.30;;;;;;;12.20;70.67;100912.97;4994268;28;20262;-81
2022/11/02 04:51:11;;;;;;;6.70;1.73;;;;;;;12.11;70.60;100918.38;4994001;28;20589;-79
2022/11/02 04:53:37;;;;;;;6.10;1.20;;;;;;;12.05;70.87;100905.38;4995231;28;20224;-80
2022/11/02 04:56:04;;;;;;;7.93;2.47;;;;;;;12.13;71.05;100906.13;4993548;28;20216;-80
2022/11/02 04:58:31;;;;;;;6.73;2.03;;;;;;;12.14;71.11;100905.22;4994747;28;20251;-80
2022/11/02 05:00:57;;;;;;;6.80;1.80;;;;;;;12.20;71.23;100905.13;4994260;28;20221;-80
2022/11/02 05:03:25;;;;;;;6.70;1.60;;;;;;;12.24;71.21;100916.41;4994491;28;20237;-80
2022/11/02 05:05:54;;;;;;;3.63;1.20;;;;;;;12.25;70.66;100908.53;4994551;28;20215;-81
2022/11/02 05:08:20;;;;;;;2.90;1.27;;;;;;;12.10;70.99;100927.09;4994046;28;20252;-82
2022/11/02 05:10:47;;;;;;;5.17;1.40;;;;;;;12.10;70.97;100914.03;4994503;28;20208;-81
2022/11/02 05:13:13;;;;;;;4.30;1.40;;;;;;;12.11;70.77;100906.16;4993802;28;20203;-81
2022/11/02 05:15:40;;;;;;;3.40;1.20;;;;;;;12.07;71.13;100914.06;4995187;28;20548;-81
2022/11/02 05:18:06;;;;;;;3.83;1.30;;;;;;;12.03;71.45;100902.81;4993358;28;20712;-81
2022/11/02 05:20:34;;;;;;;5.53;1.23;;;;;;;12.05;71.78;100894.91;4993594;28;20216;-81
2022/11/02 05:23:00;;;;;;;5.23;1.67;;;;;;;12.12;71.57;100889.53;4993313;28;20241;-81
2022/11/02 05:25:27;;;;;;;4.60;1.50;;;;;;;11.99;71.72;100900.25;4996628;28;20842;-79
2022/11/02 05:27:56;;;;;;;4.67;1.50;;;;;;;12.06;71.66;100888.81;4999452;28;20583;-80
2022/11/02 05:30:23;;;;;;;6.20;1.70;;;;;;;11.99;71.42;100888.06;4999576;28;20674;-79
2022/11/02 05:32:49;;;;;;;4.37;1.63;;;;;;;12.00;71.61;100889.78;4999585;28;20201;-81
2022/11/02 05:35:16;;;;;;;5.97;1.70;;;;;;;12.04;71.84;100882.75;4999536;28;20206;-81
2022/11/02 05:37:44;;;;;;;3.83;1.50;;;;;;;12.08;71.47;100897.50;4999942;28;20585;-81
2022/11/02 05:40:11;;;;;;;5.07;1.60;;;;;;;12.03;71.30;100899.31;4998097;28;20316;-81
2022/11/02 05:42:38;;;;;;;4.50;1.47;;;;;;;12.05;71.78;100897.53;5002101;28;20225;-81
2022/11/02 05:45:05;;;;;;;4.60;1.50;;;;;;;12.03;71.47;100907.16;5000710;28;20235;-78
2022/11/02 05:47:33;;;;;;;3.57;1.37;;;;;;;12.06;71.89;100913.22;5001382;28;20209;-79
2022/11/02 05:49:59;;;;;;;2.83;1.27;;;;;;;12.00;71.89;100913.31;5000435;28;20248;-80
2022/11/02 05:52:26;;;;;;;6.07;1.73;;;;;;;11.90;71.80;100922.22;5000646;28;20210;-79
2022/11/02 05:54:53;;;;;;;4.13;1.80;;;;;;;11.87;72.38;100899.56;5001182;28;20221;-80
2022/11/02 05:57:20;;;;;;;7.17;2.07;;;;;;;11.98;72.47;100886.31;4999702;28;20211;-78
2022/11/02 05:59:47;;;;;;;4.00;1.67;;;;;;;12.05;72.08;100887.06;5000030;28;20228;-80
2022/11/02 06:02:13;;;;;;;5.30;1.63;;;;;;;12.05;72.29;100900.16;4999538;28;20225;-80
2022/11/02 06:04:40;;;;;;;5.00;1.50;;;;;;;11.98;71.72;100894.16;5000980;28;20219;-80
2022/11/02 06:07:06;;;;;;;6.40;2.53;;;;;;;12.01;72.02;100907.22;4999675;28;20209;-80
2022/11/02 06:09:33;;;;;;;6.47;1.83;;;;;;;12.03;72.04;100907.16;4999451;28;20239;-80
2022/11/02 06:12:01;;;;;;;3.77;1.73;;;;;;;11.96;72.07;100913.41;4998747;28;20209;-81
2022/11/02 06:14:27;;;;;;;4.60;1.60;;;;;;;12.03;71.30;100930.72;4999454;28;20579;-80
2022/11/02 06:16:53;;;;;;;7.13;1.83;;;;;;;12.02;71.61;100937.69;5000772;28;20209;-81
2022/11/02 06:19:20;;;;;;;5.13;1.20;;;;;;;12.02;71.69;100944.69;4999564;28;20233;-81
2022/11/02 06:21:46;;;;;;;7.73;1.57;;;;;;;12.05;71.80;100957.72;4999257;28;20218;-81
2022/11/02 06:24:13;;;;;;;3.50;1.30;;;;;;;12.01;71.83;100956.03;4999339;28;20219;-81
2022/11/02 06:26:39;;;;;;;3.70;1.47;;;;;;;12.03;71.69;100941.19;4999099;28;20228;-80
2022/11/02 06:29:07;;;;;;;4.63;1.63;;;;;;;12.01;71.76;100954.31;5000305;28;20229;-78
2022/11/02 06:31:33;;;;;;;4.37;1.83;;;;;;;12.05;71.82;100957.72;4999378;28;20709;-81
2022/11/02 06:34:00;;;;;;;5.93;1.83;;;;;;;12.07;71.78;100953.31;4999275;28;20200;-78
2022/11/02 06:36:26;;;;;;;2.40;1.23;;;;;;;12.01;71.62;100966.50;4998535;28;20219;-81
2022/11/02 06:38:53;;;;;;;8.20;1.80;;;;;;;11.99;71.90;100968.28;4995357;28;20757;-81
2022/11/02 06:41:19;;;;;;;4.50;1.90;;;;;;;12.05;71.89;100958.59;4995286;28;20209;-80
2022/11/02 06:43:45;;;;;;;2.97;1.33;;;;;;;11.97;71.67;100972.69;4995269;28;20233;-81
2022/11/02 06:46:13;;;;;;;5.47;1.40;;;;;;;12.00;71.87;100970.88;4995859;28;20218;-81
2022/11/02 06:48:40;;;;;;;3.27;1.87;;;;;;;12.06;72.03;100970.78;4996465;28;20235;-81
2022/11/02 06:51:06;;;;;;;4.93;1.20;;;;;;;11.95;71.85;100984.91;4996977;28;20625;-81
2022/11/02 06:53:33;;;;;;;4.57;2.03;;;;;;;11.97;72.08;100976.19;4996390;28;20201;-81
2022/11/02 06:56:00;;;;;;;5.73;1.23;;;;;;;12.05;72.21;100966.44;4997059;28;20210;-81
2022/11/02 06:58:26;;;;;;;3.23;1.30;;;;;;;12.00;72.02;100972.63;4998703;28;20235;-80
2022/11/02 07:00:57;;;;;;;5.17;1.80;;;;;;;12.00;72.38;100983.97;5000538;28;20216;-81
2022/11/02 07:03:26;;;;;;;4.50;1.67;;;;;;;12.06;72.41;100970.78;4998281;28;20594;-81
2022/11/02 07:05:53;;;;;;;2.87;1.30;;;;;;;12.16;71.98;100968.00;4998870;28;20222;-81
2022/11/02 07:08:20;;;;;;;6.97;1.50;;;;;;;12.10;71.44;100992.53;4999330;28;20240;-81
2022/11/02 07:10:47;;;;;;;4.00;1.40;;;;;;;12.14;71.80;101004.69;4998489;28;20213;-81
2022/11/02 07:13:14;;;;;;;4.83;1.63;;;;;;;12.22;71.23;101007.16;4998138;28;20209;-80
2022/11/02 07:15:41;;;;;;;4.47;1.27;;;;;;;12.25;71.67;101013.22;4998763;28;20216;-80
2022/11/02 07:18:08;;;;;;;5.30;1.40;;;;;;;12.25;71.69;101010.59;4998503;28;20218;-81
2022/11/02 07:20:37;;;;;;;6.57;1.40;;;;;;;12.19;71.37;101018.56;4996823;28;20207;-81
2022/11/02 07:23:04;;;;;;;7.43;1.83;;;;;;;12.22;71.78;101023.72;4997250;28;20341;-81
2022/11/02 07:25:32;;;;;;;3.97;1.80;;;;;;;12.19;71.30;101023.78;4997560;28;20205;-80
2022/11/02 07:27:59;;;;;;;5.87;2.00;;;;;;;12.24;71.59;101018.47;4998234;28;20256;-80
2022/11/02 07:30:26;;;;;;;3.73;1.67;;;;;;;12.32;72.20;101014.81;4997318;28;20263;-80
2022/11/02 07:32:52;;;;;;;5.13;1.20;;;;;;;12.36;71.57;101012.16;4997546;28;20203;-79
2022/11/02 07:35:19;;;;;;;6.17;1.67;;;;;;;12.41;71.90;101036.53;4998101;28;20676;-80
2022/11/02 07:37:54;;;;;;;7.30;1.70;;;;;;;12.44;72.05;101021.59;4999222;28;20220;-81
2022/11/02 07:40:21;;;;;;;3.17;1.30;;;;;;;12.42;71.36;101038.25;4998341;28;20219;-80
2022/11/02 07:42:47;;;;;;;2.77;1.37;;;;;;;12.45;71.66;101031.22;4998480;28;20261;-81
2022/11/02 07:45:14;;;;;;;5.50;1.33;;;;;;;12.41;70.88;101041.78;4998651;28;20238;-80
2022/11/02 07:47:44;;;;;;;6.43;1.40;;;;;;;12.51;71.07;101040.72;4997798;28;20208;-80
2022/11/02 07:50:11;;;;;;;6.57;1.37;;;;;;;12.56;71.17;101045.88;4997884;28;20395;-79
2022/11/02 07:52:44;;;;;;;5.30;1.33;;;;;;;12.57;71.02;101066.78;4998096;28;20201;-80
2022/11/02 07:55:12;;;;;;;2.77;1.20;;;;;;;12.66;71.20;101064.00;4997259;28;20205;-80
2022/11/02 07:57:38;;;;;;;3.90;1.43;;;;;;;12.57;70.11;101061.56;4991954;28;20208;-78
2022/11/02 08:00:06;;;;;;;5.37;2.10;;;;;;;12.58;70.75;101078.13;4985681;28;20223;-80
2022/11/02 08:02:33;;;;;;;2.80;1.33;;;;;;;12.61;70.97;101076.31;4988898;28;20225;-81
2022/11/02 08:04:59;;;;;;;8.30;1.87;;;;;;;12.54;70.93;101064.22;4992295;28;20205;-78
2022/11/02 08:07:26;;;;;;;3.43;1.53;;;;;;;12.55;71.31;101059.84;4989809;28;20214;-80
2022/11/02 08:09:52;;;;;;;4.47;1.30;;;;;;;12.49;70.67;101077.41;4990423;28;20220;-79
2022/11/02 08:12:20;;;;;;;5.90;1.57;;;;;;;12.57;70.68;101084.28;4997052;28;20204;-81
2022/11/02 08:14:46;;;;;;;9.17;1.60;;;;;;;12.61;71.01;101073.72;4997359;28;20612;-80
2022/11/02 08:17:13;;;;;;;3.63;1.40;;;;;;;12.53;70.01;101070.34;4997557;28;20225;-82
2022/11/02 08:19:39;;;;;;;2.93;2.07;;;;;;;12.59;70.68;101079.88;4996432;28;20598;-81
2022/11/02 08:22:06;;;;;;;4.07;1.63;;;;;;;12.66;70.02;101086.72;4996137;28;20571;-80
2022/11/02 08:24:32;;;;;;;6.50;2.10;;;;;;;12.68;70.23;101074.47;4996362;28;20224;-81
2022/11/02 08:26:59;;;;;;;4.57;1.60;;;;;;;12.68;70.38;101103.28;4996938;28;20214;-80
2022/11/02 08:29:26;;;;;;;6.47;1.70;;;;;;;12.82;69.97;101108.28;4996309;28;20720;-80
2022/11/02 08:31:53;;;;;;;6.10;1.60;;;;;;;12.82;70.06;101109.13;4997276;28;20212;-81
2022/11/02 08:34:19;;;;;;;3.27;1.30;;;;;;;12.81;69.77;101124.91;4996172;28;20201;-80
2022/11/02 08:36:46;;;;;;;7.23;2.30;;;;;;;12.86;70.37;101118.69;4997039;28;20718;-80
2022/11/02 08:39:12;;;;;;;5.10;1.90;;;;;;;12.89;69.82;101130.88;4996007;28;20246;-81
2022/11/02 08:41:39;;;;;;;3.17;1.27;;;;;;;12.82;69.55;101139.72;4995761;28;20216;-80
2022/11/02 08:44:05;;;;;;;6.03;1.57;;;;;;;12.86;70.64;101128.28;4996097;28;20231;-80
2022/11/02 08:46:33;;;;;;;4.30;1.70;;;;;;;12.91;69.62;101134.31;4978736;28;20715;-80
2022/11/02 08:48:59;;;;;;;4.77;1.83;;;;;;;13.02;69.83;101147.22;4977543;28;20293;-80
2022/11/02 08:51:25;;;;;;;3.80;1.33;;;;;;;13.07;69.44;101140.16;4980953;28;20202;-80
2022/11/02 08:53:52;;;;;;;4.00;1.70;;;;;;;12.96;69.50;101140.31;4984189;28;20210;-78
2022/11/02 08:56:19;;;;;;;3.17;1.30;;;;;;;13.05;69.95;101153.28;4983774;28;20676;-77
2022/11/02 08:58:45;;;;;;;5.47;1.50;;;;;;;12.98;69.71;101150.78;4979026;28;20234;-79
2022/11/02 09:01:11;;;;;;;4.83;1.70;;;;;;;13.07;69.66;101161.13;4976289;28;20218;-79
2022/11/02 09:03:39;;;;;;;3.80;1.33;;;;;;;13.03;69.11;101193.53;4977081;28;20233;-81
2022/11/02 09:06:06;;;;;;;4.70;1.40;;;;;;;13.09;69.49;101190.78;4976606;28;20216;-80
2022/11/02 09:08:33;;;;;;;4.93;2.40;;;;;;;13.19;69.22;101196.75;4975829;28;20242;-81
2022/11/02 09:11:01;;;;;;;4.03;1.60;;;;;;;13.17;69.26;101199.38;4983076;28;20695;-81
2022/11/02 09:13:28;;;;;;;5.97;2.00;;;;;;;13.22;68.96;101194.94;4985566;28;20199;-80
2022/11/02 09:15:57;;;;;;;4.67;1.53;;;;;;;13.24;68.30;101224.63;4992522;28;20208;-80
2022/11/02 09:18:23;;;;;;;6.13;1.97;;;;;;;13.25;68.75;101239.44;4994227;28;20229;-80
2022/11/02 09:20:51;;;;;;;4.30;1.73;;;;;;;13.24;68.04;101263.06;4994008;28;20206;-81
2022/11/02 09:23:20;;;;;;;8.90;1.73;;;;;;;13.29;67.54;101262.13;4994659;28;20229;-81
2022/11/02 09:25:47;;;;;;;4.83;1.53;;;;;;;13.27;67.79;101279.59;4995473;28;20209;-79
2022/11/02 09:28:14;;;;;;;4.43;1.60;;;;;;;13.21;66.90;101284.94;4995725;28;20227;-78
2022/11/02 09:30:41;;;;;;;5.07;1.57;;;;;;;13.23;66.63;101309.38;4995286;28;20197;-80
2022/11/02 09:33:08;;;;;;;6.73;1.93;;;;;;;13.35;67.26;101310.13;4995992;28;20229;-81
2022/11/02 09:35:35;;;;;;;7.00;4.17;;;;;;;13.39;67.45;101311.81;4996219;28;20206;-80
2022/11/02 09:38:04;;;;;;;4.30;1.80;;;;;;;13.43;65.97;101321.34;4995922;28;20564;-81
2022/11/02 09:40:37;;;;;;;3.27;1.33;;;;;;;13.43;65.46;101343.19;4997032;28;20590;-80
2022/11/02 09:43:12;;;;;;;6.67;1.70;;;;;;;13.39;62.48;101395.72;4999754;28;20229;-79
2022/11/02 09:45:47;;;;;;;5.67;1.40;;;;;;;13.24;62.09;101455.34;5001347;28;20672;-82
2022/11/02 09:48:18;;;;;;;5.20;1.53;;;;;;;13.40;62.57;101495.38;5003534;28;20245;-79
2022/11/02 09:50:52;;;;;;;3.50;1.60;;;;;;;13.39;60.31;101542.59;5005475;28;20209;-80
2022/11/02 09:53:25;;;;;;;4.10;1.33;;;;;;;13.51;61.38;101589.63;5006275;28;20210;-80
2022/11/02 09:55:54;;;;;;;2.43;1.40;;;;;;;13.41;60.18;101602.00;5001260;28;20209;-79
2022/11/02 09:58:28;;;;;;;3.77;1.40;;;;;;;13.46;60.54;101597.56;5002448;28;20234;-82
2022/11/02 10:01:00;;;;;;;3.93;1.27;;;;;;;13.56;60.69;101605.31;5000169;28;20209;-82
2022/11/02 10:03:38;;;;;;;5.27;2.67;;;;;;;13.55;61.25;101599.22;4992408;28;20221;-82
2022/11/02 10:06:12;;;;;;;2.80;1.70;;;;;;;13.47;59.88;101601.06;4994009;28;20203;-81
2022/11/02 10:08:49;;;;;;;5.00;1.60;;;;;;;13.54;60.76;101618.47;4996501;28;20237;-82
2022/11/02 10:11:31;;;;;;;4.83;1.50;;;;;;;13.56;61.77;101600.06;4996124;28;20300;-82
2022/11/02 10:14:00;;;;;;;4.73;1.20;;;;;;;13.50;59.62;101606.28;4999844;28;20615;-81
2022/11/02 10:16:33;;;;;;;5.90;1.80;;;;;;;13.54;59.67;101636.84;5000220;28;20213;-81
2022/11/02 10:19:02;;;;;;;2.13;1.10;;;;;;;13.45;58.71;101663.16;4999734;28;20231;-80
2022/11/02 10:21:32;;;;;;;4.60;1.37;;;;;;;13.29;57.87;101670.28;4999709;28;20208;-82
2022/11/02 10:24:09;;;;;;;3.10;1.40;;;;;;;13.33;57.62;101707.88;4998409;28;20232;-81
2022/11/02 10:26:38;;;;;;;3.93;1.40;;;;;;;13.44;58.22;101709.50;4989799;28;20209;-81
2022/11/02 10:29:15;;;;;;;3.80;1.43;;;;;;;13.59;58.10;101700.59;4991654;28;20256;-82
2022/11/02 10:31:42;;;;;;;3.03;1.40;;;;;;;13.63;58.18;101699.66;4999897;28;20213;-80
2022/11/02 10:34:22;;;;;;;3.07;1.27;;;;;;;13.67;57.83;101721.50;4999996;28;20200;-81
2022/11/02 10:36:58;;;;;;;2.93;1.43;;;;;;;13.53;58.10;101711.16;5000136;28;20216;-81
2022/11/02 10:39:34;;;;;;;7.30;1.80;;;;;;;13.63;59.52;101710.16;4999248;28;20237;-82
2022/11/02 10:42:11;;;;;;;3.87;1.37;;;;;;;13.55;56.83;101713.78;4998607;28;20683;-82
2022/11/02 10:44:54;;;;;;;7.30;1.50;;;;;;;13.65;57.23;101731.16;4998452;28;20224;-82
2022/11/02 10:47:24;;;;;;;5.50;1.77;;;;;;;13.73;57.17;101738.94;4999171;28;20222;-81
2022/11/02 10:50:17;;;;;;;8.53;1.30;;;;;;;13.79;57.34;101749.38;4998653;28;20237;-80
2022/11/02 10:52:45;;;;;;;5.57;1.50;;;;;;;13.85;56.96;101760.66;4999736;28;20224;-80
2022/11/02 10:55:22;;;;;;;8.37;1.60;;;;;;;13.82;57.52;101754.59;4998418;28;20218;-81
2022/11/02 10:57:50;;;;;;;3.83;1.30;;;;;;;13.70;56.86;101748.59;4999590;28;20248;-83
2022/11/02 11:00:29;;;;;;;2.57;1.13;;;;;;;13.61;56.83;101771.41;4999852;28;20211;-81
2022/11/02 11:03:04;;;;;;;4.67;1.60;;;;;;;13.58;57.25;101782.81;4999176;28;20591;-82
2022/11/02 11:05:32;;;;;;;7.03;1.90;;;;;;;13.51;57.88;101768.88;4998547;28;20687;-80
2022/11/02 11:07:59;;;;;;;5.00;1.87;;;;;;;13.61;58.05;101745.19;4999190;28;20298;-81
2022/11/02 11:10:27;;;;;;;4.30;2.50;;;;;;;13.61;58.48;101734.69;5000522;28;20210;-81
2022/11/02 11:12:55;;;;;;;2.83;1.20;;;;;;;13.46;58.04;101744.47;5000624;28;20248;-80
2022/11/02 11:15:23;;;;;;;4.27;1.60;;;;;;;13.41;58.10;101725.28;5003478;28;20293;-81
2022/11/02 11:17:51;;;;;;;4.30;1.47;;;;;;;13.49;58.29;101748.81;4999605;28;20706;-81
2022/11/02 11:20:31;;;;;;;4.40;1.50;;;;;;;13.51;57.44;101711.16;4998799;28;20216;-81
2022/11/02 11:23:18;;;;;;;4.53;1.30;;;;;;;13.51;56.28;101745.28;4998709;28;20209;-79
2022/11/02 11:25:55;;;;;;;5.00;1.50;;;;;;;13.57;56.54;101778.44;4999023;28;20707;-83
2022/11/02 11:28:24;;;;;;;7.13;1.33;;;;;;;13.76;56.55;101786.16;4998607;28;20233;-82
2022/11/02 11:31:04;;;;;;;5.63;1.50;;;;;;;13.73;55.68;101807.16;4997845;28;20700;-81
2022/11/02 11:33:33;;;;;;;5.83;1.40;;;;;;;13.81;55.94;101826.31;4998572;28;20205;-81
2022/11/02 11:36:00;;;;;;;4.40;1.27;;;;;;;13.80;55.65;101833.34;5000840;28;20214;-82
2022/11/02 11:38:27;;;;;;;3.90;1.20;;;;;;;13.59;55.02;101837.03;4999153;28;20233;-79
2022/11/02 11:40:58;;;;;;;4.23;1.67;;;;;;;13.60;55.29;101848.41;4999567;28;20214;-81
2022/11/02 11:43:27;;;;;;;5.23;1.30;;;;;;;13.74;55.56;101846.53;4999580;28;20596;-81
2022/11/02 11:45:55;;;;;;;4.23;1.80;;;;;;;13.75;55.76;101844.75;4999148;28;20212;-81
2022/11/02 11:48:32;;;;;;;5.73;1.50;;;;;;;13.75;54.85;101806.25;4998200;28;20230;-81
2022/11/02 11:51:01;;;;;;;4.27;2.00;;;;;;;13.71;54.57;101817.66;4997807;28;20213;-83